Wetterdaten: Woche 26.09.05 - 02.10.05 (KW39)
Datum Zeit Temperatur Luftfeuchte Luftdruck Niederschlag Wind Richtung Sonne Solar Taupunkt Windchill
26.09.2005 00:00 13.5 C 95 % 1016.8 hPa 0.0 l/m 0.6 km/h (0 Bft) O-SO 0.00 h 0 W/m 12.7 C 13.5 C
26.09.2005 01:00 12.5 C 97 % 1017.4 hPa 0.0 l/m 0.0 km/h (0 Bft) N 0.00 h 0 W/m 12.1 C 12.5 C
26.09.2005 02:00 11.9 C 99 % 1018.0 hPa 0.0 l/m 1.3 km/h (1 Bft) O-SO 0.00 h 0 W/m 11.7 C 11.9 C
26.09.2005 03:00 11.2 C 100 % 1018.4 hPa 0.0 l/m 1.3 km/h (1 Bft) O-SO 0.00 h 0 W/m 11.1 C 11.2 C
26.09.2005 04:00 10.9 C 100 % 1019.1 hPa 0.0 l/m 3.4 km/h (1 Bft) O-SO 0.00 h 0 W/m 10.9 C 10.9 C
26.09.2005 05:00 10.6 C 100 % 1019.2 hPa 0.0 l/m 0.6 km/h (0 Bft) O-SO 0.00 h 0 W/m 10.6 C 10.6 C
26.09.2005 06:00 10.3 C 100 % 1020.1 hPa 0.0 l/m 0.3 km/h (0 Bft) O-SO 0.00 h 0 W/m 10.3 C 10.3 C
26.09.2005 07:00 11.3 C 100 % 1020.4 hPa 0.0 l/m 0.4 km/h (0 Bft) O-SO 0.00 h 13 W/m 11.3 C 11.3 C
26.09.2005 08:00 12.4 C 99 % 1021.0 hPa 0.0 l/m 0.0 km/h (0 Bft) N 0.00 h 40 W/m 12.3 C 12.4 C
26.09.2005 09:00 13.8 C 97 % 1021.6 hPa 0.0 l/m 0.6 km/h (0 Bft) O-SO 0.00 h 70 W/m 13.3 C 13.8 C
26.09.2005 10:00 15.1 C 91 % 1021.7 hPa 0.0 l/m 0.0 km/h (0 Bft) N 0.00 h 120 W/m 13.7 C 15.1 C
26.09.2005 11:00 16.6 C 80 % 1021.5 hPa 0.0 l/m 0.6 km/h (0 Bft) O-SO 0.50 h 381 W/m 13.1 C 16.6 C
26.09.2005 12:00 17.8 C 75 % 1021.3 hPa 0.0 l/m 0.4 km/h (0 Bft) W-NW 0.10 h 196 W/m 13.2 C 17.8 C
26.09.2005 13:00 18.8 C 65 % 1021.2 hPa 0.0 l/m 9.2 km/h (2 Bft) W-NW 0.00 h 216 W/m 12.0 C 18.8 C
26.09.2005 14:00 19.3 C 63 % 1021.1 hPa 0.0 l/m 6.2 km/h (2 Bft) W-NW 0.00 h 229 W/m 11.9 C 19.3 C
26.09.2005 15:00 20.2 C 59 % 1021.0 hPa 0.0 l/m 8.7 km/h (2 Bft) W-NW 0.17 h 282 W/m 11.9 C 20.2 C
26.09.2005 16:00 20.7 C 56 % 1020.9 hPa 0.0 l/m 6.9 km/h (2 Bft) W-NW 0.47 h 286 W/m 11.7 C 20.7 C
26.09.2005 17:00 20.8 C 56 % 1020.8 hPa 0.0 l/m 10.4 km/h (2 Bft) W-NW 0.68 h 228 W/m 11.6 C 20.8 C
26.09.2005 18:00 19.0 C 66 % 1021.2 hPa 0.0 l/m 7.1 km/h (2 Bft) W-NW 0.18 h 58 W/m 12.4 C 19.0 C
26.09.2005 19:00 17.8 C 72 % 1021.3 hPa 0.0 l/m 0.3 km/h (0 Bft) W 0.00 h 5 W/m 12.7 C 17.8 C
26.09.2005 20:00 17.2 C 76 % 1021.5 hPa 0.0 l/m 1.2 km/h (1 Bft) O 0.00 h 0 W/m 12.9 C 17.2 C
26.09.2005 21:00 15.7 C 83 % 1022.6 hPa 0.0 l/m 2.9 km/h (1 Bft) O 0.00 h 0 W/m 12.9 C 15.7 C
26.09.2005 22:00 14.6 C 91 % 1022.8 hPa 0.0 l/m 5.1 km/h (1 Bft) O-SO 0.00 h 0 W/m 13.2 C 14.6 C
26.09.2005 23:00 14.0 C 93 % 1022.9 hPa 0.0 l/m 0.7 km/h (0 Bft) O-SO 0.00 h 0 W/m 12.9 C 14.0 C
27.09.2005 00:00 14.0 C 95 % 1022.9 hPa 0.0 l/m 1.9 km/h (1 Bft) O-SO 0.00 h 0 W/m 13.2 C 14.0 C
27.09.2005 01:00 14.0 C 97 % 1022.9 hPa 0.0 l/m 0.7 km/h (0 Bft) O-SO 0.00 h 0 W/m 13.5 C 14.0 C
27.09.2005 02:00 13.8 C 97 % 1022.9 hPa 0.0 l/m 0.8 km/h (0 Bft) O-SO 0.00 h 0 W/m 13.4 C 13.8 C
27.09.2005 03:00 13.3 C 98 % 1022.9 hPa 0.0 l/m 0.4 km/h (0 Bft) O-SO 0.00 h 0 W/m 12.9 C 13.3 C
27.09.2005 04:00 13.1 C 99 % 1022.9 hPa 0.0 l/m 0.0 km/h (0 Bft) N 0.00 h 0 W/m 12.9 C 13.1 C
27.09.2005 05:00 12.8 C 100 % 1022.0 hPa 0.0 l/m 0.0 km/h (0 Bft) N 0.00 h 0 W/m 12.8 C 12.8 C
27.09.2005 06:00 12.8 C 100 % 1022.0 hPa 0.0 l/m 0.0 km/h (0 Bft) N 0.00 h 0 W/m 12.8 C 12.8 C
27.09.2005 07:00 12.9 C 100 % 1022.2 hPa 0.0 l/m 0.3 km/h (0 Bft) O-SO 0.00 h 4 W/m 12.9 C 12.9 C
27.09.2005 08:00 13.3 C 100 % 1022.1 hPa 0.0 l/m 0.1 km/h (0 Bft) N 0.00 h 22 W/m 13.3 C 13.3 C
27.09.2005 09:00 14.0 C 98 % 1022.9 hPa 0.0 l/m 0.0 km/h (0 Bft) N 0.00 h 59 W/m 13.7 C 14.0 C
27.09.2005 10:00 14.9 C 91 % 1022.7 hPa 0.0 l/m 0.0 km/h (0 Bft) N 0.00 h 135 W/m 13.5 C 14.9 C
27.09.2005 11:00 15.6 C 87 % 1022.6 hPa 0.0 l/m 0.0 km/h (0 Bft) N 0.00 h 142 W/m 13.4 C 15.6 C
27.09.2005 12:00 16.2 C 85 % 1022.6 hPa 0.0 l/m 0.0 km/h (0 Bft) N 0.00 h 147 W/m 13.7 C 16.2 C
27.09.2005 13:00 17.0 C 84 % 1022.4 hPa 0.0 l/m 0.0 km/h (0 Bft) N 0.00 h 167 W/m 14.2 C 17.0 C
27.09.2005 14:00 18.1 C 78 % 1021.6 hPa 0.0 l/m 0.1 km/h (0 Bft) N 0.00 h 270 W/m 14.1 C 18.1 C
27.09.2005 15:00 18.6 C 76 % 1021.1 hPa 0.0 l/m 0.4 km/h (0 Bft) SO 0.00 h 194 W/m 14.2 C 18.6 C
27.09.2005 16:00 19.7 C 70 % 1020.0 hPa 0.0 l/m 1.0 km/h (0 Bft) SO 0.53 h 310 W/m 14.1 C 19.7 C
27.09.2005 17:00 19.9 C 68 % 1020.0 hPa 0.0 l/m 1.1 km/h (0 Bft) O-SO 0.52 h 183 W/m 13.7 C 19.9 C
27.09.2005 18:00 18.1 C 77 % 1020.2 hPa 0.0 l/m 0.1 km/h (0 Bft) N 0.00 h 36 W/m 14.0 C 18.1 C
27.09.2005 19:00 16.6 C 85 % 1020.4 hPa 0.0 l/m 2.6 km/h (1 Bft) SO 0.00 h 6 W/m 14.1 C 16.6 C
27.09.2005 20:00 15.5 C 93 % 1020.6 hPa 0.0 l/m 2.1 km/h (1 Bft) O-SO 0.00 h 0 W/m 14.3 C 15.5 C
27.09.2005 21:00 14.5 C 97 % 1020.9 hPa 0.0 l/m 0.1 km/h (0 Bft) O-SO 0.00 h 0 W/m 14.0 C 14.5 C
27.09.2005 22:00 14.4 C 99 % 1021.8 hPa 0.0 l/m 0.1 km/h (0 Bft) O-SO 0.00 h 0 W/m 14.3 C 14.4 C
27.09.2005 23:00 13.9 C 99 % 1021.8 hPa 0.0 l/m 0.0 km/h (0 Bft) N 0.00 h 0 W/m 13.8 C 13.9 C
28.09.2005 00:00 13.9 C 100 % 1021.8 hPa 0.0 l/m 0.0 km/h (0 Bft) N 0.00 h 0 W/m 13.9 C 13.9 C
28.09.2005 01:00 13.8 C 100 % 1021.8 hPa 0.0 l/m 0.0 km/h (0 Bft) N 0.00 h 0 W/m 13.8 C 13.8 C
28.09.2005 02:00 13.0 C 100 % 1022.0 hPa 0.0 l/m 0.0 km/h (0 Bft) N 0.00 h 0 W/m 13.0 C 13.0 C
28.09.2005 03:00 13.1 C 100 % 1021.8 hPa 0.0 l/m 0.0 km/h (0 Bft) N 0.00 h 0 W/m 13.1 C 13.1 C
28.09.2005 04:00 12.6 C 100 % 1021.0 hPa 0.0 l/m 0.0 km/h (0 Bft) O-SO 0.00 h 0 W/m 12.6 C 12.6 C
28.09.2005 05:00 12.5 C 100 % 1021.5 hPa 0.0 l/m 0.2 km/h (0 Bft) O-SO 0.00 h 0 W/m 12.5 C 12.5 C
28.09.2005 06:00 12.7 C 100 % 1021.6 hPa 0.0 l/m 0.6 km/h (0 Bft) O-SO 0.00 h 0 W/m 12.7 C 12.7 C
28.09.2005 07:00 13.3 C 100 % 1021.9 hPa 0.0 l/m 0.0 km/h (0 Bft) N 0.00 h 13 W/m 13.3 C 13.3 C
28.09.2005 08:00 13.8 C 99 % 1022.5 hPa 0.0 l/m 0.0 km/h (0 Bft) N 0.00 h 40 W/m 13.7 C 13.8 C
28.09.2005 09:00 14.7 C 95 % 1022.8 hPa 0.0 l/m 0.0 km/h (0 Bft) N 0.13 h 156 W/m 13.9 C 14.7 C
28.09.2005 10:00 16.3 C 81 % 1022.6 hPa 0.0 l/m 1.8 km/h (1 Bft) O 0.07 h 218 W/m 13.0 C 16.3 C
28.09.2005 11:00 17.8 C 65 % 1022.4 hPa 0.0 l/m 15.6 km/h (3 Bft) W-NW 0.98 h 541 W/m 11.2 C 17.8 C
28.09.2005 12:00 18.7 C 58 % 1022.2 hPa 0.0 l/m 22.1 km/h (4 Bft) W-NW 0.23 h 349 W/m 10.4 C 18.7 C
28.09.2005 13:00 18.6 C 58 % 1022.3 hPa 0.0 l/m 23.7 km/h (4 Bft) W-NW 0.03 h 270 W/m 10.1 C 18.6 C
28.09.2005 14:00 18.3 C 60 % 1021.7 hPa 0.0 l/m 18.9 km/h (3 Bft) W-NW 0.00 h 210 W/m 10.5 C 18.3 C
28.09.2005 15:00 18.8 C 59 % 1021.2 hPa 0.0 l/m 26.4 km/h (4 Bft) W-NW 0.70 h 422 W/m 10.6 C 18.8 C
28.09.2005 16:00 19.4 C 57 % 1021.1 hPa 0.0 l/m 19.3 km/h (3 Bft) W-NW 0.80 h 401 W/m 10.6 C 19.4 C
28.09.2005 17:00 18.8 C 58 % 1020.9 hPa 0.0 l/m 12.5 km/h (3 Bft) W-NW 0.48 h 188 W/m 10.4 C 18.8 C
28.09.2005 18:00 17.0 C 62 % 1021.1 hPa 0.0 l/m 7.3 km/h (2 Bft) W-NW 0.00 h 20 W/m 9.7 C 17.0 C
28.09.2005 19:00 16.4 C 63 % 1021.5 hPa 0.0 l/m 10.4 km/h (2 Bft) W-NW 0.00 h 2 W/m 9.4 C 16.4 C
28.09.2005 20:00 16.0 C 65 % 1021.6 hPa 0.0 l/m 3.5 km/h (1 Bft) W-NW 0.00 h 0 W/m 9.5 C 16.0 C
28.09.2005 21:00 15.4 C 70 % 1021.6 hPa 0.0 l/m 0.2 km/h (0 Bft) W-NW 0.00 h 0 W/m 9.9 C 15.4 C
28.09.2005 22:00 14.8 C 74 % 1021.3 hPa 0.0 l/m 0.0 km/h (0 Bft) N 0.00 h 0 W/m 10.2 C 14.8 C
28.09.2005 23:00 14.3 C 80 % 1020.8 hPa 0.0 l/m 0.1 km/h (0 Bft) W-NW 0.00 h 0 W/m 10.8 C 14.3 C
29.09.2005 00:00 13.9 C 83 % 1020.8 hPa 0.0 l/m 0.0 km/h (0 Bft) N 0.00 h 0 W/m 11.1 C 13.9 C
29.09.2005 01:00 13.2 C 88 % 1020.6 hPa 0.0 l/m 1.3 km/h (1 Bft) O 0.00 h 0 W/m 11.2 C 13.2 C
29.09.2005 02:00 12.9 C 91 % 1020.2 hPa 0.0 l/m 0.0 km/h (0 Bft) N 0.00 h 0 W/m 11.4 C 12.9 C
29.09.2005 03:00 12.7 C 92 % 1019.9 hPa 0.0 l/m 0.2 km/h (0 Bft) O 0.00 h 0 W/m 11.5 C 12.7 C
29.09.2005 04:00 12.7 C 94 % 1019.9 hPa 0.0 l/m 0.0 km/h (0 Bft) N 0.00 h 0 W/m 11.7 C 12.7 C
29.09.2005 05:00 12.8 C 95 % 1019.9 hPa 0.0 l/m 0.0 km/h (0 Bft) N 0.00 h 0 W/m 12.0 C 12.8 C
29.09.2005 06:00 12.6 C 95 % 1020.4 hPa 0.0 l/m 3.2 km/h (1 Bft) W-NW 0.00 h 0 W/m 11.8 C 12.6 C
29.09.2005 07:00 13.4 C 87 % 1020.6 hPa 0.0 l/m 19.0 km/h (3 Bft) W-NW 0.00 h 8 W/m 11.2 C 13.4 C
29.09.2005 08:00 13.7 C 81 % 1019.9 hPa 0.0 l/m 21.9 km/h (4 Bft) W-NW 0.00 h 42 W/m 10.6 C 13.7 C
29.09.2005 09:00 14.1 C 74 % 1020.8 hPa 0.0 l/m 22.0 km/h (4 Bft) W-NW 0.00 h 138 W/m 9.5 C 14.1 C
29.09.2005 10:00 14.8 C 67 % 1020.7 hPa 0.0 l/m 23.0 km/h (4 Bft) W-NW 0.47 h 321 W/m 8.8 C 14.8 C
29.09.2005 11:00 15.5 C 59 % 1020.1 hPa 0.0 l/m 22.9 km/h (4 Bft) W-NW 0.10 h 240 W/m 7.4 C 15.5 C
29.09.2005 12:00 16.7 C 54 % 1020.2 hPa 0.0 l/m 24.3 km/h (4 Bft) W-NW 0.87 h 620 W/m 7.3 C 16.7 C
29.09.2005 13:00 16.5 C 49 % 1019.4 hPa 0.0 l/m 22.1 km/h (4 Bft) W-NW 0.00 h 187 W/m 5.9 C 16.5 C
29.09.2005 14:00 16.0 C 53 % 1019.5 hPa 0.0 l/m 20.0 km/h (4 Bft) W-NW 0.10 h 212 W/m 6.4 C 16.0 C
29.09.2005 15:00 14.0 C 71 % 1020.4 hPa 0.3 l/m 23.9 km/h (4 Bft) W-NW 0.10 h 157 W/m 8.8 C 14.0 C
29.09.2005 16:00 12.7 C 88 % 1021.0 hPa 1.3 l/m 7.1 km/h (2 Bft) W-NW 0.00 h 56 W/m 10.8 C 12.7 C
29.09.2005 17:00 12.7 C 94 % 1021.0 hPa 1.3 l/m 1.5 km/h (1 Bft) O-SO 0.00 h 46 W/m 11.8 C 12.7 C
29.09.2005 18:00 12.3 C 95 % 1021.0 hPa 0.3 l/m 4.2 km/h (1 Bft) W-NW 0.00 h 22 W/m 11.6 C 12.3 C
29.09.2005 19:00 10.9 C 97 % 1022.2 hPa 0.0 l/m 11.1 km/h (2 Bft) W-NW 0.00 h 7 W/m 10.4 C 10.9 C
29.09.2005 20:00 10.1 C 97 % 1023.0 hPa 0.0 l/m 1.7 km/h (1 Bft) NW 0.00 h 0 W/m 9.7 C 10.1 C
29.09.2005 21:00 9.8 C 99 % 1023.8 hPa 0.0 l/m 2.6 km/h (1 Bft) SO 0.00 h 0 W/m 9.7 C 9.5 C
29.09.2005 22:00 10.2 C 100 % 1024.9 hPa 0.6 l/m 1.9 km/h (1 Bft) O-SO 0.00 h 0 W/m 10.2 C 10.2 C
29.09.2005 23:00 9.7 C 100 % 1025.5 hPa 0.0 l/m 4.9 km/h (1 Bft) O-SO 0.00 h 0 W/m 9.7 C 9.4 C
30.09.2005 00:00 9.1 C 100 % 1025.6 hPa 0.0 l/m 0.2 km/h (0 Bft) O-SO 0.00 h 0 W/m 9.1 C 9.1 C
30.09.2005 01:00 8.9 C 100 % 1025.6 hPa 0.0 l/m 0.9 km/h (0 Bft) O-SO 0.00 h 0 W/m 8.9 C 8.9 C
30.09.2005 02:00 8.6 C 100 % 1025.7 hPa 0.0 l/m 0.2 km/h (0 Bft) N 0.00 h 0 W/m 8.6 C 8.6 C
30.09.2005 03:00 8.3 C 100 % 1025.7 hPa 0.0 l/m 0.0 km/h (0 Bft) N 0.00 h 0 W/m 8.3 C 8.3 C
30.09.2005 04:00 8.5 C 100 % 1025.7 hPa 0.0 l/m 0.0 km/h (0 Bft) NW 0.00 h 0 W/m 8.5 C 8.5 C
30.09.2005 05:00 7.8 C 100 % 1025.8 hPa 0.0 l/m 0.0 km/h (0 Bft) N 0.00 h 0 W/m 7.8 C 7.8 C
30.09.2005 06:00 7.0 C 100 % 1025.9 hPa 0.0 l/m 0.1 km/h (0 Bft) N 0.00 h 0 W/m 7.0 C 7.0 C
30.09.2005 07:00 6.4 C 100 % 1026.5 hPa 0.0 l/m 0.0 km/h (0 Bft) N 0.00 h 14 W/m 6.4 C 6.4 C
30.09.2005 08:00 6.4 C 100 % 1027.0 hPa 0.0 l/m 0.1 km/h (0 Bft) N 0.00 h 52 W/m 6.4 C 6.4 C
30.09.2005 09:00 7.3 C 98 % 1026.9 hPa 0.0 l/m 0.0 km/h (0 Bft) N 0.33 h 195 W/m 7.0 C 7.3 C
30.09.2005 10:00 8.9 C 88 % 1027.7 hPa 0.0 l/m 0.0 km/h (0 Bft) N 0.42 h 300 W/m 7.0 C 8.9 C
30.09.2005 11:00 9.9 C 82 % 1027.3 hPa 0.0 l/m 0.0 km/h (0 Bft) N 0.00 h 155 W/m 7.0 C 9.9 C
30.09.2005 12:00 10.9 C 83 % 1026.4 hPa 0.0 l/m 0.0 km/h (0 Bft) N 0.00 h 210 W/m 8.2 C 10.9 C
30.09.2005 13:00 12.1 C 77 % 1026.2 hPa 0.0 l/m 0.2 km/h (0 Bft) N 0.00 h 292 W/m 8.1 C 12.1 C
30.09.2005 14:00 13.2 C 62 % 1026.1 hPa 0.0 l/m 1.5 km/h (1 Bft) W-NW 0.67 h 395 W/m 6.0 C 13.2 C
30.09.2005 15:00 13.8 C 55 % 1025.1 hPa 0.0 l/m 0.6 km/h (0 Bft) SO 0.17 h 298 W/m 4.9 C 13.8 C
30.09.2005 16:00 13.8 C 58 % 1025.0 hPa 0.0 l/m 0.6 km/h (0 Bft) SO 0.00 h 171 W/m 5.7 C 13.8 C
30.09.2005 17:00 13.5 C 64 % 1024.6 hPa 0.0 l/m 0.1 km/h (0 Bft) SO 0.00 h 100 W/m 6.9 C 13.5 C
30.09.2005 18:00 13.1 C 71 % 1024.3 hPa 0.0 l/m 0.0 km/h (0 Bft) N 0.67 h 64 W/m 7.9 C 13.1 C
30.09.2005 19:00 12.1 C 79 % 1024.2 hPa 0.0 l/m 2.0 km/h (1 Bft) O-SO 0.00 h 6 W/m 8.5 C 12.1 C
30.09.2005 20:00 11.4 C 82 % 1024.3 hPa 0.0 l/m 2.6 km/h (1 Bft) O-SO 0.00 h 0 W/m 8.4 C 11.4 C
30.09.2005 21:00 11.1 C 85 % 1024.3 hPa 0.0 l/m 0.9 km/h (0 Bft) O-SO 0.00 h 0 W/m 8.6 C 11.1 C
30.09.2005 22:00 11.0 C 88 % 1024.3 hPa 0.0 l/m 1.3 km/h (1 Bft) O-SO 0.00 h 0 W/m 9.0 C 11.0 C
30.09.2005 23:00 10.9 C 88 % 1024.3 hPa 0.0 l/m 0.1 km/h (0 Bft) N 0.00 h 0 W/m 9.0 C 10.9 C
01.10.2005 00:00 10.9 C 89 % 1023.6 hPa 0.0 l/m 0.0 km/h (0 Bft) N 0.00 h 0 W/m 9.1 C 10.9 C
01.10.2005 01:00 10.7 C 91 % 1023.3 hPa 0.0 l/m 0.5 km/h (0 Bft) O-SO 0.00 h 0 W/m 9.3 C 10.7 C
01.10.2005 02:00 10.7 C 92 % 1023.3 hPa 0.0 l/m 0.1 km/h (0 Bft) N 0.00 h 0 W/m 9.4 C 10.7 C
01.10.2005 03:00 10.7 C 93 % 1022.2 hPa 0.0 l/m 0.0 km/h (0 Bft) N 0.00 h 0 W/m 9.6 C 10.7 C
01.10.2005 04:00 10.4 C 94 % 1021.3 hPa 0.0 l/m 0.0 km/h (0 Bft) N 0.00 h 0 W/m 9.5 C 10.4 C
01.10.2005 05:00 10.1 C 96 % 1020.6 hPa 0.0 l/m 0.0 km/h (0 Bft) N 0.00 h 0 W/m 9.5 C 10.1 C
01.10.2005 06:00 10.0 C 98 % 1020.3 hPa 0.0 l/m 0.0 km/h (0 Bft) N 0.00 h 0 W/m 9.7 C 10.0 C
01.10.2005 07:00 10.1 C 99 % 1019.9 hPa 0.0 l/m 0.0 km/h (0 Bft) N 0.00 h 5 W/m 9.9 C 10.1 C
01.10.2005 08:00 10.8 C 97 % 1019.1 hPa 0.3 l/m 0.0 km/h (0 Bft) N 0.00 h 35 W/m 10.4 C 10.8 C
01.10.2005 09:00 11.7 C 90 % 1018.8 hPa 0.0 l/m 0.0 km/h (0 Bft) N 0.00 h 79 W/m 10.1 C 11.7 C
01.10.2005 10:00 11.9 C 85 % 1018.1 hPa 0.0 l/m 1.2 km/h (1 Bft) SO 0.00 h 66 W/m 9.5 C 11.9 C
01.10.2005 11:00 12.7 C 81 % 1017.8 hPa 0.0 l/m 0.7 km/h (0 Bft) O 0.00 h 136 W/m 9.4 C 12.7 C
01.10.2005 12:00 13.9 C 76 % 1016.9 hPa 0.0 l/m 3.6 km/h (1 Bft) W 0.00 h 221 W/m 9.8 C 13.9 C
01.10.2005 13:00 14.2 C 81 % 1016.6 hPa 0.0 l/m 1.0 km/h (0 Bft) SW 0.00 h 139 W/m 10.9 C 14.2 C
01.10.2005 14:00 13.8 C 85 % 1015.7 hPa 0.0 l/m 0.8 km/h (0 Bft) W-SW 0.00 h 94 W/m 11.4 C 13.8 C
01.10.2005 15:00 13.1 C 93 % 1015.7 hPa 1.0 l/m 3.1 km/h (1 Bft) S 0.00 h 112 W/m 11.9 C 13.1 C
01.10.2005 16:00 12.8 C 96 % 1015.8 hPa 0.6 l/m 1.5 km/h (1 Bft) O-SO 0.00 h 40 W/m 12.2 C 12.8 C
01.10.2005 17:00 12.5 C 97 % 1014.8 hPa 0.0 l/m 3.2 km/h (1 Bft) O 0.00 h 41 W/m 12.1 C 12.5 C
01.10.2005 18:00 12.3 C 98 % 1014.8 hPa 0.3 l/m 2.5 km/h (1 Bft) O-SO 0.00 h 11 W/m 12.0 C 12.3 C
01.10.2005 19:00 12.2 C 99 % 1014.8 hPa 1.0 l/m 1.6 km/h (1 Bft) SO 0.00 h 1 W/m 12.2 C 12.2 C
01.10.2005 20:00 12.4 C 100 % 1014.8 hPa 2.9 l/m 1.7 km/h (1 Bft) O-SO 0.00 h 0 W/m 12.4 C 12.4 C
01.10.2005 21:00 12.5 C 100 % 1014.7 hPa 1.3 l/m 4.0 km/h (1 Bft) SO 0.00 h 0 W/m 12.5 C 12.5 C
01.10.2005 22:00 12.7 C 100 % 1014.7 hPa 1.3 l/m 4.9 km/h (1 Bft) SO 0.00 h 0 W/m 12.7 C 12.7 C
01.10.2005 23:00 12.6 C 100 % 1014.7 hPa 0.0 l/m 20.7 km/h (4 Bft) W-NW 0.00 h 0 W/m 12.6 C 12.6 C
02.10.2005 00:00 11.2 C 100 % 1015.6 hPa 0.0 l/m 21.7 km/h (4 Bft) W-NW 0.00 h 0 W/m 11.2 C 11.2 C
02.10.2005 01:00 10.4 C 99 % 1016.1 hPa 1.0 l/m 3.6 km/h (1 Bft) W-NW 0.00 h 0 W/m 10.2 C 10.4 C
02.10.2005 02:00 9.9 C 100 % 1016.9 hPa 0.0 l/m 0.4 km/h (0 Bft) S 0.00 h 0 W/m 9.9 C 9.9 C
02.10.2005 03:00 9.9 C 100 % 1017.2 hPa 1.6 l/m 2.5 km/h (1 Bft) O-SO 0.00 h 0 W/m 9.9 C 9.8 C
02.10.2005 04:00 10.0 C 100 % 1017.2 hPa 2.3 l/m 1.8 km/h (1 Bft) O-SO 0.00 h 0 W/m 10.0 C 9.9 C
02.10.2005 05:00 9.9 C 100 % 1017.2 hPa 1.0 l/m 1.3 km/h (1 Bft) SO 0.00 h 0 W/m 9.9 C 9.8 C
02.10.2005 06:00 9.6 C 100 % 1017.2 hPa 0.6 l/m 4.2 km/h (1 Bft) SO 0.00 h 0 W/m 9.6 C 9.2 C
02.10.2005 07:00 9.7 C 100 % 1017.3 hPa 4.2 l/m 1.0 km/h (0 Bft) SO 0.00 h 2 W/m 9.7 C 9.6 C
02.10.2005 08:00 9.5 C 100 % 1018.0 hPa 4.2 l/m 2.6 km/h (1 Bft) O-SO 0.00 h 9 W/m 9.5 C 9.4 C
02.10.2005 09:00 9.5 C 100 % 1018.3 hPa 3.6 l/m 1.6 km/h (1 Bft) O-SO 0.00 h 23 W/m 9.5 C 9.4 C
02.10.2005 10:00 9.6 C 100 % 1019.0 hPa 2.6 l/m 4.8 km/h (1 Bft) O-SO 0.00 h 45 W/m 9.6 C 9.1 C
02.10.2005 11:00 10.0 C 99 % 1019.3 hPa 1.0 l/m 0.0 km/h (0 Bft) N 0.00 h 121 W/m 9.7 C 10.0 C
02.10.2005 12:00 10.4 C 96 % 1019.2 hPa 0.0 l/m 1.8 km/h (1 Bft) O-SO 0.00 h 144 W/m 9.7 C 10.4 C
02.10.2005 13:00 10.5 C 94 % 1019.2 hPa 0.0 l/m 0.7 km/h (0 Bft) O 0.00 h 192 W/m 9.6 C 10.5 C
02.10.2005 14:00 10.5 C 91 % 1019.2 hPa 0.0 l/m 2.2 km/h (1 Bft) O-SO 0.00 h 163 W/m 9.1 C 10.5 C
02.10.2005 15:00 10.4 C 92 % 1019.2 hPa 0.0 l/m 0.6 km/h (0 Bft) O-SO 0.00 h 91 W/m 9.2 C 10.4 C
02.10.2005 16:00 10.1 C 95 % 1019.2 hPa 0.3 l/m 1.0 km/h (0 Bft) O-SO 0.00 h 73 W/m 9.3 C 10.1 C
02.10.2005 17:00 10.0 C 94 % 1019.2 hPa 0.0 l/m 2.1 km/h (1 Bft) O-SO 0.00 h 43 W/m 9.1 C 9.9 C
02.10.2005 18:00 9.6 C 96 % 1019.7 hPa 0.6 l/m 0.0 km/h (0 Bft) N 0.00 h 9 W/m 9.1 C 9.6 C
02.10.2005 19:00 9.1 C 98 % 1020.4 hPa 0.6 l/m 0.0 km/h (0 Bft) N 0.00 h 0 W/m 8.7 C 9.1 C
02.10.2005 20:00 8.7 C 99 % 1020.5 hPa 0.3 l/m 0.0 km/h (0 Bft) N 0.00 h 0 W/m 8.5 C 8.7 C
02.10.2005 21:00 8.7 C 100 % 1021.3 hPa 0.3 l/m 0.0 km/h (0 Bft) N 0.00 h 0 W/m 8.7 C 8.7 C
02.10.2005 22:00 8.6 C 100 % 1021.5 hPa 0.0 l/m 0.0 km/h (0 Bft) N 0.00 h 0 W/m 8.6 C 8.6 C
02.10.2005 23:00 8.8 C 100 % 1021.5 hPa 0.3 l/m 0.8 km/h (0 Bft) O-SO 0.00 h 0 W/m 8.8 C 8.7 C
Min-Datum _ 30.09.05 29.09.05 01.10.05 - 26.09.05 - - - 30.09.05 30.09.05
_ Min-Zeit 08:49 13:23 22:51 - 00:00 - - - 15:30 08:49
Minimum _ 6.0 C 47 % 1014.7 hPa - 0.0 km/h (0 Bft) - - - 3.4 C 6.0 C
Max-Datum _ 26.09.05 26.09.05 30.09.05 02.10.05 02.10.05 - 26.09.05 29.09.05 27.09.05 26.09.05
_ Max-Zeit 16:50 03:20 09:58 08:01 00:03 - 17:28 12:21 20:14 16:50
Maximum _ 21.8 C 100 % 1027.9 hPa 4.2 l/m 48.2 km/h
W-NW (6 Bft)
- 0.05 h 901 W/m 14.7 C 21.8 C
Durchschnitt _ 13.0 C 88 % 1021.1 hPa #37.4 l/m 3.6 km/h (1 Bft) W-NW #10:28 h 143 W/m 10.8 C 13.0 C

Durchschnitt Minimum Temp.12.6 C
Durchschnitt Maximum Temp.13.4 C
© Kaiko 2005